Terminal Aerodrome Forecast
Issued by NWS

Home | Current Version | Previous Version | Text Only | Print | Product List | Glossary On
Versions: 1 2 3 4 5 6 7 8 9 10 11 12 13 14 15
000
FTUS45 KTFX 052320
TAFHVR
TAF
KHVR 052320Z 0600/0624 33007KT P6SM BKN035 OVC070
     FM060300 25005KT P6SM BKN070
     FM061300 24005KT P6SM SKC=

USA.gov is the U.S. government's official web portal to all federal, state and local government web resources and services.